createdAt,value
2022-12-13T00:02:13.388Z,98771.63
2022-12-13T00:04:43.055Z,98764.78
2022-12-13T00:07:15.246Z,98771.53
2022-12-13T00:09:44.544Z,98770.72
2022-12-13T00:12:13.628Z,98776.72
2022-12-13T00:14:54.209Z,98780.13
2022-12-13T00:17:23.430Z,98774.19
2022-12-13T00:19:52.767Z,98770.78
2022-12-13T00:22:23.944Z,98776.72
2022-12-13T00:24:55.298Z,98779.25
2022-12-13T00:27:24.915Z,98768.94
2022-12-13T00:29:54.089Z,98766.41
2022-12-13T00:32:27.676Z,98757.91
2022-12-13T00:35:01.852Z,98759.53
2022-12-13T00:37:34.095Z,98767.16
2022-12-13T00:40:03.317Z,98773.19
2022-12-13T00:42:32.634Z,98774.84
2022-12-13T00:45:06.969Z,98771.50
2022-12-13T00:47:36.336Z,98766.41
2022-12-13T00:50:05.728Z,98767.25
2022-12-13T00:52:43.587Z,98767.31
2022-12-13T00:55:23.161Z,98774.19
2022-12-13T00:57:54.889Z,98771.59
2022-12-13T01:00:25.152Z,98771.63
2022-12-13T01:02:55.465Z,98763.09
2022-12-13T01:06:03.784Z,98752.88
2022-12-13T01:08:25.889Z,98764.00
2022-12-13T01:10:55.608Z,98760.66
2022-12-13T01:13:31.481Z,98757.22
2022-12-13T01:16:00.729Z,98737.66
2022-12-13T01:18:29.830Z,98752.19
2022-12-13T01:21:01.222Z,98764.97
2022-12-13T01:23:32.644Z,98760.69
2022-12-13T01:26:10.084Z,98762.41
2022-12-13T01:28:39.417Z,98762.34
2022-12-13T01:33:51.853Z,98756.41
2022-12-13T01:36:27.382Z,98763.25
2022-12-13T01:38:59.647Z,98762.41
2022-12-13T01:41:35.696Z,98760.72
2022-12-13T01:44:06.459Z,98763.28
2022-12-13T01:46:37.424Z,98759.91
2022-12-13T01:49:19.532Z,98772.66
2022-12-13T01:51:53.880Z,98723.19
2022-12-13T01:54:33.703Z,98765.84
2022-12-13T01:57:14.298Z,98771.75
2022-12-13T01:59:45.987Z,98773.38
2022-12-13T02:02:20.473Z,98770.84
2022-12-13T02:04:54.999Z,98768.34
2022-12-13T02:07:30.508Z,98766.72
2022-12-13T02:10:04.660Z,98766.66
2022-12-13T02:12:46.516Z,98770.94
2022-12-13T02:15:19.179Z,98771.75
2022-12-13T02:18:02.511Z,98744.38
2022-12-13T02:20:53.281Z,98784.44
2022-12-13T02:23:50.756Z,98781.03
2022-12-13T02:26:47.896Z,98769.91
2022-12-13T02:29:49.289Z,98774.22
2022-12-13T02:32:28.315Z,98764.81
2022-12-13T02:35:04.937Z,98774.03
2022-12-13T02:37:42.459Z,98766.41
2022-12-13T02:40:20.756Z,98760.44
2022-12-13T02:43:01.185Z,98779.25
2022-12-13T02:45:41.923Z,98776.66
2022-12-13T02:48:15.777Z,98783.50
2022-12-13T02:53:23.785Z,98770.75
2022-12-13T02:55:59.546Z,98781.84
2022-12-13T02:58:39.905Z,98732.31
2022-12-13T03:01:27.888Z,98778.38
2022-12-13T03:04:13.230Z,98761.31
2022-12-13T03:06:56.735Z,98786.03
2022-12-13T03:09:43.836Z,98763.84
2022-12-13T03:12:41.495Z,98789.44
2022-12-13T03:15:26.045Z,98768.09
2022-12-13T03:17:59.873Z,98786.03
2022-12-13T03:20:37.425Z,98787.66
2022-12-13T03:23:06.693Z,98786.81
2022-12-13T03:25:35.748Z,98784.28
2022-12-13T03:28:12.180Z,98775.84
2022-12-13T03:30:41.532Z,98771.63
2022-12-13T03:33:10.593Z,98775.91
2022-12-13T03:35:44.317Z,98772.50
2022-12-13T03:38:23.062Z,98775.06
2022-12-13T03:40:55.982Z,98769.91
2022-12-13T03:43:25.732Z,98769.94
2022-12-13T03:45:55.913Z,98778.50
2022-12-13T03:48:30.948Z,98784.47
2022-12-13T03:51:02.789Z,98777.66
2022-12-13T03:53:43.491Z,98781.13
2022-12-13T03:56:17.609Z,98781.16
2022-12-13T03:58:46.837Z,98764.09
2022-12-13T04:01:18.322Z,98768.38
2022-12-13T04:03:58.437Z,98760.69
2022-12-13T04:06:32.990Z,98777.69
2022-12-13T04:09:02.904Z,98780.25
2022-12-13T04:11:45.043Z,98781.91
2022-12-13T04:14:21.765Z,98763.22
2022-12-13T04:16:52.122Z,98778.56
2022-12-13T04:19:23.776Z,98769.16
2022-12-13T04:21:55.860Z,98748.69
2022-12-13T04:24:32.398Z,98766.63
2022-12-13T04:27:03.213Z,98782.81
2022-12-13T04:29:34.365Z,98781.09
2022-12-13T04:32:04.907Z,98783.63
2022-12-13T04:34:37.427Z,98777.69
2022-12-13T04:37:09.024Z,98781.13
2022-12-13T04:39:47.714Z,98778.59
2022-12-13T04:42:17.641Z,98788.81
2022-12-13T04:44:46.786Z,98782.84
2022-12-13T04:47:21.047Z,98793.09
2022-12-13T04:49:55.286Z,98789.72
2022-12-13T04:52:26.446Z,98783.72
2022-12-13T04:55:00.643Z,98785.38
2022-12-13T04:57:29.925Z,98786.22
2022-12-13T05:00:14.193Z,98778.56
2022-12-13T05:02:43.822Z,98785.38
2022-12-13T05:05:15.738Z,98788.75
2022-12-13T05:07:47.644Z,98798.16
2022-12-13T05:10:35.811Z,98772.59
2022-12-13T05:13:07.254Z,98792.22
2022-12-13T05:15:41.628Z,98790.53
2022-12-13T05:18:11.932Z,98782.91
2022-12-13T05:20:41.533Z,98792.25
2022-12-13T05:23:22.774Z,98786.25
2022-12-13T05:25:57.612Z,98789.69
2022-12-13T05:28:28.963Z,98777.78
2022-12-13T05:31:23.657Z,98791.44
2022-12-13T05:33:54.000Z,98783.78
2022-12-13T05:37:08.052Z,98794.84
2022-12-13T05:39:37.481Z,98803.34
2022-12-13T05:42:06.970Z,98797.41
2022-12-13T05:44:36.025Z,98799.13
2022-12-13T05:47:11.982Z,98776.97
2022-12-13T05:49:41.039Z,98808.56
2022-12-13T05:52:22.162Z,98806.03
2022-12-13T05:55:01.977Z,98800.91
2022-12-13T05:57:38.261Z,98775.28
2022-12-13T06:00:29.681Z,98807.75
2022-12-13T06:03:00.912Z,98804.31
2022-12-13T06:05:31.176Z,98800.94
2022-12-13T06:08:00.752Z,98805.19
2022-12-13T06:10:34.300Z,98800.09
2022-12-13T06:13:21.819Z,98794.13
2022-12-13T06:16:01.489Z,98803.50
2022-12-13T06:18:42.609Z,98803.47
2022-12-13T06:21:17.003Z,98808.63
2022-12-13T06:23:46.209Z,98789.91
2022-12-13T06:26:17.239Z,98798.47
2022-12-13T06:31:21.540Z,98810.41
2022-12-13T06:33:50.561Z,98812.13
2022-12-13T06:36:26.441Z,98807.84
2022-12-13T06:38:55.522Z,98803.53
2022-12-13T06:41:32.300Z,98816.28
2022-12-13T06:44:01.193Z,98822.31
2022-12-13T06:46:30.234Z,98830.81
2022-12-13T06:49:01.777Z,98834.22
2022-12-13T06:51:32.607Z,98835.00
2022-12-13T06:54:03.655Z,98841.78
2022-12-13T06:56:34.850Z,98853.72
2022-12-13T06:59:04.086Z,98851.16
2022-12-13T07:01:36.999Z,98846.09
2022-12-13T07:04:29.770Z,98850.41
2022-12-13T07:07:01.929Z,98852.94
2022-12-13T07:09:32.246Z,98865.75
2022-12-13T07:12:05.556Z,98859.81
2022-12-13T07:14:40.874Z,98851.31
2022-12-13T07:17:10.626Z,98876.06
2022-12-13T07:19:40.441Z,98871.81
2022-12-13T07:22:09.665Z,98872.72
2022-12-13T07:24:39.190Z,98874.44
2022-12-13T07:27:10.322Z,98878.69
2022-12-13T07:29:39.914Z,98873.56
2022-12-13T07:32:09.206Z,98875.28
2022-12-13T07:34:38.336Z,98886.31
2022-12-13T07:37:07.500Z,98895.69
2022-12-13T07:39:49.379Z,98893.16
2022-12-13T07:42:20.456Z,98894.81
2022-12-13T07:44:56.546Z,98896.50
2022-12-13T07:47:28.939Z,98898.16
2022-12-13T07:50:03.157Z,98885.38
2022-12-13T07:52:33.226Z,98884.53
2022-12-13T07:55:06.825Z,98876.88
2022-12-13T07:57:38.014Z,98888.00
2022-12-13T08:00:08.171Z,98887.13
2022-12-13T08:02:42.540Z,98883.69
2022-12-13T08:05:25.812Z,98884.53
2022-12-13T08:07:56.203Z,98888.00
2022-12-13T08:10:25.536Z,98898.25
2022-12-13T08:12:57.053Z,98898.22
2022-12-13T08:15:27.108Z,98911.84
2022-12-13T08:18:00.323Z,98901.56
2022-12-13T08:20:29.718Z,98893.97
2022-12-13T08:23:05.844Z,98908.47
2022-12-13T08:25:37.571Z,98903.34
2022-12-13T08:28:08.785Z,98912.72
2022-12-13T08:30:38.077Z,98920.34
2022-12-13T08:33:07.198Z,98916.94
2022-12-13T08:35:36.356Z,98917.78
2022-12-13T08:38:05.660Z,98918.66
2022-12-13T08:40:35.044Z,98907.56
2022-12-13T08:43:04.685Z,98903.31
2022-12-13T08:45:35.783Z,98922.06
2022-12-13T08:48:05.388Z,98925.44
2022-12-13T08:50:34.611Z,98916.09
2022-12-13T08:53:03.760Z,98936.53
2022-12-13T08:55:32.855Z,98934.81
2022-12-13T08:58:08.753Z,98933.09
2022-12-13T09:00:42.336Z,98939.06
2022-12-13T09:03:11.751Z,98912.56
2022-12-13T09:05:41.941Z,98947.59
2022-12-13T09:08:24.823Z,98954.41
2022-12-13T09:11:10.478Z,98962.94
2022-12-13T09:13:43.422Z,98949.31
2022-12-13T09:16:23.424Z,98951.81
2022-12-13T09:19:26.375Z,98950.97
2022-12-13T09:22:02.131Z,98950.16
2022-12-13T09:24:37.695Z,98938.16
2022-12-13T09:27:10.708Z,98950.16
2022-12-13T09:29:57.296Z,98954.44
2022-12-13T09:32:28.627Z,98956.16
2022-12-13T09:34:58.454Z,98953.63
2022-12-13T09:37:27.564Z,98963.03
2022-12-13T09:39:56.723Z,98947.63
2022-12-13T09:42:30.441Z,98960.41
2022-12-13T09:47:50.651Z,98964.69
2022-12-13T09:50:25.922Z,98958.75
2022-12-13T09:52:59.913Z,98967.28
2022-12-13T09:55:40.362Z,98964.81
2022-12-13T09:58:15.862Z,98961.44
2022-12-13T10:00:45.948Z,98973.34
2022-12-13T10:03:19.216Z,98975.06
2022-12-13T10:05:58.343Z,98970.75
2022-12-13T10:08:30.797Z,98974.22
2022-12-13T10:11:00.172Z,98973.31
2022-12-13T10:13:40.021Z,98980.97
2022-12-13T10:16:23.702Z,98980.94
2022-12-13T10:18:55.972Z,98981.78
2022-12-13T10:21:33.406Z,98986.91
2022-12-13T10:24:31.417Z,98988.63
2022-12-13T10:27:13.852Z,98989.44
2022-12-13T10:30:06.079Z,98999.66
2022-12-13T10:32:43.933Z,98997.94
2022-12-13T10:35:27.630Z,99007.34
2022-12-13T10:38:03.545Z,99012.44
2022-12-13T10:40:42.555Z,99011.59
2022-12-13T10:43:19.970Z,99009.00
2022-12-13T10:46:01.460Z,99009.81
2022-12-13T10:48:38.303Z,99009.84
2022-12-13T10:51:13.214Z,99021.69
2022-12-13T10:53:49.070Z,98980.63
2022-12-13T10:56:23.331Z,99029.34
2022-12-13T10:59:17.351Z,99023.34
2022-12-13T11:01:46.903Z,99020.84
2022-12-13T11:04:28.131Z,99037.00
2022-12-13T11:07:01.553Z,99034.44
2022-12-13T11:09:39.158Z,99025.09
2022-12-13T11:12:17.144Z,99017.47
2022-12-13T11:14:55.233Z,99019.16
2022-12-13T11:17:27.657Z,99027.75
2022-12-13T11:19:59.923Z,99025.19
2022-12-13T11:22:34.070Z,99035.41
2022-12-13T11:25:06.357Z,99031.09
2022-12-13T11:27:54.462Z,99038.75
2022-12-13T11:30:27.792Z,99036.16
2022-12-13T11:33:16.462Z,99034.44
2022-12-13T11:36:06.284Z,99046.22
2022-12-13T11:38:58.085Z,99047.88
2022-12-13T11:41:33.651Z,99046.84
2022-12-13T11:44:10.401Z,99057.88
2022-12-13T11:46:44.495Z,99060.31
2022-12-13T11:49:18.683Z,99064.50
2022-12-13T11:51:52.457Z,99065.41
2022-12-13T11:54:40.019Z,99071.34
2022-12-13T11:57:19.699Z,99068.72
2022-12-13T12:02:51.460Z,99081.56
2022-12-13T12:05:30.148Z,99083.25
2022-12-13T12:08:32.227Z,99096.06
2022-12-13T12:11:05.415Z,99092.59
2022-12-13T12:16:35.870Z,99120.84
2022-12-13T12:19:05.193Z,99093.41
2022-12-13T12:22:12.825Z,99125.16
2022-12-13T12:24:43.167Z,99109.00
2022-12-13T12:27:28.048Z,99106.47
2022-12-13T12:30:14.006Z,99103.03
2022-12-13T12:32:56.513Z,99101.28
2022-12-13T12:35:57.137Z,99088.56
2022-12-13T12:38:57.043Z,99093.66
2022-12-13T12:41:44.900Z,99105.53
2022-12-13T12:44:43.772Z,99105.44
2022-12-13T12:55:04.746Z,99101.56
2022-12-13T12:57:39.022Z,99103.28
2022-12-13T13:00:15.152Z,99104.09
2022-12-13T13:03:01.749Z,99097.22
2022-12-13T13:05:32.803Z,99099.91
2022-12-13T13:08:08.153Z,99092.22
2022-12-13T13:10:50.253Z,99094.81
2022-12-13T13:13:36.606Z,99099.91
2022-12-13T13:16:34.875Z,99100.88
2022-12-13T13:19:05.164Z,99092.31
2022-12-13T13:21:46.864Z,99092.47
2022-12-13T13:24:24.205Z,99098.38
2022-12-13T13:26:57.371Z,99102.59
2022-12-13T13:29:35.975Z,99097.50
2022-12-13T13:32:27.914Z,99104.28
2022-12-13T13:35:29.118Z,99097.53
2022-12-13T13:37:59.876Z,99095.75
2022-12-13T13:40:32.146Z,99079.47
2022-12-13T13:43:15.739Z,99102.66
2022-12-13T13:46:01.309Z,99106.06
2022-12-13T13:48:58.697Z,99100.91
2022-12-13T13:55:21.963Z,99106.06
2022-12-13T13:58:35.400Z,99107.78
2022-12-13T14:01:33.645Z,99111.19
2022-12-13T14:04:44.155Z,99104.34
2022-12-13T14:07:46.609Z,99117.06
2022-12-13T14:10:34.144Z,99109.41
2022-12-13T14:13:45.740Z,99106.78
2022-12-13T14:16:48.112Z,99106.75
2022-12-13T14:19:31.717Z,99099.25
2022-12-13T14:22:15.328Z,99094.09
2022-12-13T14:24:55.577Z,99081.25
2022-12-13T14:27:38.037Z,99100.09
2022-12-13T14:30:26.814Z,99093.31
2022-12-13T14:32:58.980Z,99088.16
2022-12-13T14:35:30.353Z,99085.63
2022-12-13T14:38:04.424Z,99094.13
2022-12-13T14:40:35.492Z,99089.13
2022-12-13T14:43:05.040Z,99095.94
2022-12-13T14:45:38.618Z,99094.22
2022-12-13T14:48:15.807Z,99094.25
2022-12-13T14:51:02.765Z,99093.38
2022-12-13T14:56:31.375Z,99101.88
2022-12-13T14:59:01.995Z,99091.59
2022-12-13T15:01:40.592Z,99094.25
2022-12-13T15:04:33.025Z,99089.19
2022-12-13T15:07:12.231Z,99076.28
2022-12-13T15:09:44.385Z,99095.13
2022-12-13T15:12:24.602Z,99097.00
2022-12-13T15:15:02.026Z,99097.69
2022-12-13T15:17:37.165Z,99095.09
2022-12-13T15:20:31.031Z,99095.13
2022-12-13T15:23:20.966Z,99103.38
2022-12-13T15:26:14.183Z,99098.88
2022-12-13T15:28:59.922Z,99102.13
2022-12-13T15:31:36.501Z,99109.69
2022-12-13T15:34:33.900Z,99111.25
2022-12-13T15:37:05.968Z,99086.34
2022-12-13T15:39:40.371Z,99113.75
2022-12-13T15:42:19.778Z,99106.03
2022-12-13T15:44:53.895Z,99112.13
2022-12-13T15:47:30.019Z,99119.75
2022-12-13T15:50:03.910Z,99113.72
2022-12-13T15:52:37.456Z,99107.78
2022-12-13T15:55:29.006Z,99093.13
2022-12-13T15:58:05.209Z,99107.56
2022-12-13T16:00:36.757Z,99097.28
2022-12-13T16:03:10.388Z,99090.66
2022-12-13T16:05:54.749Z,99100.81
2022-12-13T16:08:30.000Z,99094.94
2022-12-13T16:11:00.172Z,99094.03
2022-12-13T16:13:30.904Z,99089.00
2022-12-13T16:16:09.504Z,99092.31
2022-12-13T16:18:47.983Z,99090.47
2022-12-13T16:21:24.346Z,99078.38
2022-12-13T16:23:54.120Z,99092.81
2022-12-13T16:26:26.054Z,99091.06
2022-12-13T16:29:03.137Z,99085.13
2022-12-13T16:31:35.333Z,99093.59
2022-12-13T16:34:05.159Z,99053.41
2022-12-13T16:36:41.719Z,99085.06
2022-12-13T16:39:13.520Z,99069.63
2022-12-13T16:41:46.433Z,99081.59
2022-12-13T16:44:23.575Z,99084.19
2022-12-13T16:47:17.353Z,99079.09
2022-12-13T16:49:42.221Z,99086.78
2022-12-13T16:52:13.301Z,99086.75
2022-12-13T16:54:42.656Z,99068.94
2022-12-13T16:57:12.696Z,99070.69
2022-12-13T16:59:41.840Z,99073.28
2022-12-13T17:02:18.424Z,99073.34
2022-12-13T17:04:47.809Z,99073.50
2022-12-13T17:07:23.993Z,99069.28
2022-12-13T17:09:53.303Z,99060.59
2022-12-13T17:12:22.474Z,99063.25
2022-12-13T17:14:56.755Z,99061.03
2022-12-13T17:17:32.281Z,99054.31
2022-12-13T17:20:06.547Z,99054.94
2022-12-13T17:22:37.805Z,99029.28
2022-12-13T17:25:08.602Z,99045.53
2022-12-13T17:27:43.474Z,99049.53
2022-12-13T17:30:16.598Z,99049.31
2022-12-13T17:32:46.269Z,99046.63
2022-12-13T17:35:18.377Z,99046.78
2022-12-13T17:37:57.180Z,99039.91
2022-12-13T17:40:26.602Z,99036.59
2022-12-13T17:42:55.946Z,99035.81
2022-12-13T17:45:25.250Z,99004.31
2022-12-13T17:47:56.698Z,99029.25
2022-12-13T17:50:31.341Z,99006.25
2022-12-13T17:56:01.281Z,99013.81
2022-12-13T17:58:31.888Z,99016.31
2022-12-13T18:01:01.520Z,99014.66
2022-12-13T18:03:30.744Z,99013.00
2022-12-13T18:06:01.626Z,99017.31
2022-12-13T18:08:36.335Z,99009.91
2022-12-13T18:14:00.982Z,99006.59
2022-12-13T18:16:38.237Z,99010.81
2022-12-13T18:22:02.860Z,98995.63
2022-12-13T18:24:33.968Z,98991.34
2022-12-13T18:29:55.164Z,98954.75
2022-12-13T18:32:29.945Z,98961.69
2022-12-13T18:34:59.074Z,98963.34
2022-12-13T18:37:28.320Z,98962.41
2022-12-13T18:40:06.834Z,98957.34
2022-12-13T18:42:36.776Z,98950.34
2022-12-13T18:45:06.666Z,98956.31
2022-12-13T18:50:22.640Z,98961.19
2022-12-13T18:52:51.976Z,98973.72
2022-12-13T18:55:23.197Z,98961.72
2022-12-13T18:57:52.757Z,98956.41
2022-12-13T19:00:23.766Z,98955.34
2022-12-13T19:02:52.977Z,98957.78
2022-12-13T19:05:22.877Z,98949.63
2022-12-13T19:07:52.106Z,98951.22
2022-12-13T19:10:23.497Z,98949.56
2022-12-13T19:12:57.779Z,98948.56
2022-12-13T19:15:35.214Z,98938.41
2022-12-13T19:18:04.224Z,98946.78
2022-12-13T19:20:35.496Z,98938.69
2022-12-13T19:25:50.563Z,98928.28
2022-12-13T19:28:24.694Z,98918.28
2022-12-13T19:30:54.023Z,98913.22
2022-12-13T19:33:23.764Z,98913.91
2022-12-13T19:35:53.033Z,98913.25
2022-12-13T19:38:22.213Z,98907.94
2022-12-13T19:40:53.447Z,98910.06
2022-12-13T19:43:22.882Z,98910.34
2022-12-13T19:45:52.208Z,98909.41
2022-12-13T19:48:26.386Z,98886.16
2022-12-13T19:51:00.547Z,98905.59
2022-12-13T19:53:30.314Z,98909.44
2022-12-13T19:56:11.218Z,98903.34
2022-12-13T19:58:41.098Z,98896.72
2022-12-13T20:01:10.661Z,98903.59
2022-12-13T20:03:42.075Z,98900.31
2022-12-13T20:06:16.036Z,98903.38
2022-12-13T20:08:45.552Z,98899.16
2022-12-13T20:11:19.305Z,98881.44
2022-12-13T20:13:48.988Z,98867.63
2022-12-13T20:16:25.825Z,98894.84
2022-12-13T20:19:02.909Z,98890.38
2022-12-13T20:21:32.066Z,98892.00
2022-12-13T20:24:06.916Z,98887.09
2022-12-13T20:26:38.130Z,98878.88
2022-12-13T20:29:12.325Z,98882.13
2022-12-13T20:31:48.453Z,98859.91
2022-12-13T20:34:21.529Z,98852.38
2022-12-13T20:36:51.810Z,98846.63
2022-12-13T20:39:21.367Z,98846.78
2022-12-13T20:44:27.492Z,98853.84
2022-12-13T20:46:56.688Z,98813.50
2022-12-13T20:49:26.211Z,98856.25
2022-12-13T20:51:55.317Z,98851.34
2022-12-13T20:54:29.849Z,98853.72
2022-12-13T20:57:00.995Z,98845.41
2022-12-13T21:02:05.392Z,98853.09
2022-12-13T21:04:34.820Z,98842.97
2022-12-13T21:07:04.413Z,98834.41
2022-12-13T21:09:33.647Z,98843.81
2022-12-13T21:12:05.535Z,98838.75
2022-12-13T21:14:34.989Z,98839.78
2022-12-13T21:17:09.197Z,98848.44
2022-12-13T21:19:40.585Z,98841.72
2022-12-13T21:22:11.619Z,98830.56
2022-12-13T21:25:00.491Z,98839.91
2022-12-13T21:27:45.081Z,98828.75
2022-12-13T21:30:17.791Z,98829.69
2022-12-13T21:32:53.045Z,98833.16
2022-12-13T21:35:22.290Z,98832.31
2022-12-13T21:38:00.804Z,98835.72
2022-12-13T21:40:32.975Z,98805.34
2022-12-13T21:43:09.238Z,98802.81
2022-12-13T21:45:38.753Z,98797.13
2022-12-13T21:48:13.646Z,98796.41
2022-12-13T21:50:42.865Z,98778.59
2022-12-13T21:53:12.122Z,98781.31
2022-12-13T21:55:44.644Z,98778.69
2022-12-13T21:58:38.056Z,98776.84
2022-12-13T22:01:07.335Z,98777.63
2022-12-13T22:03:36.474Z,98784.34
2022-12-13T22:06:05.881Z,98767.31
2022-12-13T22:08:36.833Z,98773.28
2022-12-13T22:11:21.343Z,98765.53
2022-12-13T22:13:56.728Z,98755.44
2022-12-13T22:16:25.995Z,98757.91
2022-12-13T22:18:56.177Z,98745.22
2022-12-13T22:21:25.437Z,98741.00
2022-12-13T22:23:55.718Z,98755.53
2022-12-13T22:26:25.223Z,98758.97
2022-12-13T22:28:59.122Z,98758.13
2022-12-13T22:31:30.063Z,98751.50
2022-12-13T22:34:04.998Z,98726.72
2022-12-13T22:36:34.562Z,98747.41
2022-12-13T22:39:03.589Z,98744.88
2022-12-13T22:41:43.102Z,98735.47
2022-12-13T22:44:15.576Z,98736.22
2022-12-13T22:46:45.277Z,98731.03
2022-12-13T22:49:14.745Z,98733.63
2022-12-13T22:51:43.981Z,98730.22
2022-12-13T22:54:13.222Z,98725.94
2022-12-13T22:56:42.382Z,98712.28
2022-12-13T22:59:18.613Z,98715.84
2022-12-13T23:01:48.025Z,98705.69
2022-12-13T23:04:17.540Z,98703.91
2022-12-13T23:06:46.721Z,98679.31
2022-12-13T23:09:20.771Z,98674.88
2022-12-13T23:12:02.874Z,98663.81
2022-12-13T23:14:34.646Z,98664.78
2022-12-13T23:17:04.728Z,98661.34
2022-12-13T23:19:49.514Z,98655.56
2022-12-13T23:22:27.112Z,98642.91
2022-12-13T23:24:56.440Z,98647.19
2022-12-13T23:27:26.542Z,98642.97
2022-12-13T23:29:57.868Z,98639.66
2022-12-13T23:32:27.063Z,98640.41
2022-12-13T23:34:56.747Z,98638.66
2022-12-13T23:40:07.959Z,98636.81
2022-12-13T23:42:43.015Z,98629.16
2022-12-13T23:45:17.220Z,98626.59
2022-12-13T23:47:46.470Z,98627.38
2022-12-13T23:50:17.097Z,98611.13
2022-12-13T23:52:46.245Z,98615.38
2022-12-13T23:55:15.356Z,98590.69
2022-12-13T23:57:44.620Z,98607.56
